createdAt,value
2018-06-15T00:00:34.214Z,11.90
2018-06-15T00:03:05.081Z,11.90
2018-06-15T00:05:35.639Z,11.90
2018-06-15T00:10:35.386Z,11.90
2018-06-15T00:13:05.379Z,11.80
2018-06-15T00:15:35.447Z,11.80
2018-06-15T00:18:05.439Z,11.80
2018-06-15T00:28:04.251Z,11.80
2018-06-15T00:30:34.306Z,11.80
2018-06-15T00:33:04.329Z,11.80
2018-06-15T00:35:34.341Z,11.70
2018-06-15T00:38:04.336Z,11.70
2018-06-15T00:40:34.406Z,11.70
2018-06-15T00:43:04.383Z,11.70
2018-06-15T00:45:34.461Z,11.70
2018-06-15T00:48:04.530Z,11.70
2018-06-15T00:50:34.572Z,11.60
2018-06-15T00:55:34.473Z,11.60
2018-06-15T00:58:04.483Z,11.60
2018-06-15T01:00:34.522Z,11.60
2018-06-15T01:03:04.550Z,11.60
2018-06-15T01:05:34.591Z,11.50
2018-06-15T01:10:34.231Z,11.50
2018-06-15T01:13:04.265Z,11.50
2018-06-15T01:15:34.283Z,11.50
2018-06-15T01:18:04.339Z,11.50
2018-06-15T01:20:34.437Z,11.50
2018-06-15T01:23:04.467Z,11.50
2018-06-15T01:25:34.501Z,11.50
2018-06-15T01:28:04.505Z,11.40
2018-06-15T01:30:34.523Z,11.40
2018-06-15T01:33:04.516Z,11.40
2018-06-15T01:38:04.289Z,11.30
2018-06-15T01:40:34.300Z,11.30
2018-06-15T01:43:04.319Z,11.30
2018-06-15T01:45:34.406Z,11.30
2018-06-15T01:48:04.423Z,11.30
2018-06-15T01:53:04.118Z,11.30
2018-06-15T01:55:34.149Z,11.30
2018-06-15T01:58:04.331Z,11.30
2018-06-15T02:00:34.365Z,11.30
2018-06-15T02:03:04.435Z,11.30
2018-06-15T02:05:34.458Z,11.30
2018-06-15T02:08:04.648Z,11.40
2018-06-15T02:10:34.628Z,11.40
2018-06-15T02:13:04.662Z,11.30
2018-06-15T02:15:34.692Z,11.30
2018-06-15T02:18:04.789Z,11.30
2018-06-15T02:20:34.963Z,11.30
2018-06-15T02:23:05.064Z,11.30
2018-06-15T02:25:35.026Z,11.30
2018-06-15T02:28:05.116Z,11.30
2018-06-15T02:30:35.137Z,11.30
2018-06-15T02:33:05.248Z,11.30
2018-06-15T02:35:35.259Z,11.30
2018-06-15T02:38:05.329Z,11.30
2018-06-15T02:40:35.305Z,11.30
2018-06-15T02:43:05.330Z,11.30
2018-06-15T02:45:35.411Z,11.30
2018-06-15T02:48:05.441Z,11.20
2018-06-15T02:50:35.527Z,11.20
2018-06-15T02:53:05.580Z,11.20
2018-06-15T02:55:35.635Z,11.10
2018-06-15T02:58:05.686Z,11.10
2018-06-15T03:00:35.707Z,11.00
2018-06-15T03:03:06.076Z,11.00
2018-06-15T03:08:05.970Z,11.00
2018-06-15T03:10:36.036Z,11.00
2018-06-15T03:13:06.312Z,10.90
2018-06-15T03:15:36.439Z,10.80
2018-06-15T03:18:06.480Z,10.80
2018-06-15T03:20:36.579Z,10.80
2018-06-15T03:23:06.607Z,10.80
2018-06-15T03:25:36.583Z,10.70
2018-06-15T03:28:06.619Z,10.80
2018-06-15T03:30:36.657Z,10.70
2018-06-15T03:33:06.735Z,10.70
2018-06-15T03:38:06.610Z,10.70
2018-06-15T03:40:36.625Z,10.70
2018-06-15T03:43:07.039Z,10.70
2018-06-15T03:45:37.917Z,10.60
2018-06-15T03:48:07.957Z,10.60
2018-06-15T03:50:38.042Z,10.60
2018-06-15T03:53:09.531Z,10.60
2018-06-15T03:55:39.632Z,10.60
2018-06-15T03:58:09.643Z,10.50
2018-06-15T04:00:39.779Z,10.60
2018-06-15T04:03:09.836Z,10.60
2018-06-15T04:05:39.913Z,10.60
2018-06-15T04:08:09.945Z,10.60
2018-06-15T04:10:39.959Z,10.70
2018-06-15T04:13:10.061Z,10.70
2018-06-15T04:15:40.307Z,10.70
2018-06-15T04:18:10.333Z,10.80
2018-06-15T04:20:40.410Z,10.80
2018-06-15T04:23:10.466Z,10.80
2018-06-15T04:25:40.569Z,10.80
2018-06-15T04:28:10.624Z,10.90
2018-06-15T04:30:40.660Z,10.90
2018-06-15T04:33:11.109Z,11.00
2018-06-15T04:35:41.523Z,11.00
2018-06-15T04:38:11.861Z,11.00
2018-06-15T04:40:41.950Z,11.00
2018-06-15T04:43:11.978Z,11.10
2018-06-15T04:45:42.062Z,11.10
2018-06-15T04:48:12.201Z,11.10
2018-06-15T04:50:42.306Z,11.20
2018-06-15T04:53:12.419Z,11.20
2018-06-15T04:55:42.496Z,11.30
2018-06-15T04:58:12.575Z,11.30
2018-06-15T05:00:42.667Z,11.40
2018-06-15T05:03:15.038Z,11.40
2018-06-15T05:05:46.066Z,11.40
2018-06-15T05:08:16.254Z,11.50
2018-06-15T05:10:46.395Z,11.60
2018-06-15T05:13:16.501Z,11.70
2018-06-15T05:15:46.663Z,11.70
2018-06-15T05:18:16.755Z,11.80
2018-06-15T05:20:46.770Z,11.90
2018-06-15T05:23:16.881Z,11.90
2018-06-15T05:25:47.100Z,12.00
2018-06-15T05:28:17.049Z,12.10
2018-06-15T05:30:47.106Z,12.10
2018-06-15T05:33:17.211Z,12.20
2018-06-15T05:35:47.247Z,12.30
2018-06-15T05:38:17.260Z,12.40
2018-06-15T05:40:47.364Z,12.50
2018-06-15T05:43:17.399Z,12.60
2018-06-15T05:45:47.426Z,12.70
2018-06-15T05:48:17.440Z,12.80
2018-06-15T05:50:47.491Z,12.90
2018-06-15T05:55:47.263Z,13.10
2018-06-15T05:58:17.314Z,13.20
2018-06-15T06:00:47.413Z,13.30
2018-06-15T06:03:20.440Z,13.60
2018-06-15T06:05:50.529Z,13.80
2018-06-15T06:08:21.501Z,14.00
2018-06-15T06:10:51.636Z,14.20
2018-06-15T06:13:21.686Z,14.40
2018-06-15T06:15:51.780Z,14.50
2018-06-15T06:18:21.791Z,14.60
2018-06-15T06:20:51.872Z,14.70
2018-06-15T06:23:22.753Z,14.80
2018-06-15T06:25:52.848Z,14.80
2018-06-15T06:28:22.883Z,14.90
2018-06-15T06:30:52.963Z,14.90
2018-06-15T06:33:23.015Z,14.90
2018-06-15T06:35:53.224Z,14.90
2018-06-15T06:38:23.268Z,15.00
2018-06-15T06:40:53.369Z,15.10
2018-06-15T06:43:23.421Z,15.10
2018-06-15T06:45:53.470Z,15.20
2018-06-15T06:48:23.544Z,15.20
2018-06-15T06:50:53.671Z,15.30
2018-06-15T06:53:23.666Z,15.30
2018-06-15T06:55:53.771Z,15.40
2018-06-15T06:58:23.853Z,15.50
2018-06-15T07:00:53.982Z,15.60
2018-06-15T07:03:24.036Z,15.60
2018-06-15T07:05:54.126Z,15.60
2018-06-15T07:08:24.278Z,15.60
2018-06-15T07:10:54.350Z,15.70
2018-06-15T07:13:24.447Z,15.80
2018-06-15T07:15:54.501Z,15.80
2018-06-15T07:18:24.498Z,15.90
2018-06-15T07:20:54.704Z,15.90
2018-06-15T07:23:24.756Z,16.00
2018-06-15T07:25:54.778Z,16.00
2018-06-15T07:28:24.800Z,16.10
2018-06-15T07:30:54.852Z,16.20
2018-06-15T07:35:54.610Z,16.40
2018-06-15T07:38:24.638Z,16.60
2018-06-15T07:40:54.723Z,16.70
2018-06-15T07:43:24.779Z,16.80
2018-06-15T07:45:54.946Z,16.80
2018-06-15T07:48:25.018Z,17.00
2018-06-15T07:50:55.107Z,16.90
2018-06-15T07:53:25.188Z,16.90
2018-06-15T07:55:55.333Z,17.00
2018-06-15T07:58:25.380Z,17.10
2018-06-15T08:00:55.683Z,17.10
2018-06-15T08:03:26.056Z,17.20
2018-06-15T08:08:25.920Z,17.40
2018-06-15T08:10:56.018Z,17.60
2018-06-15T08:13:26.072Z,17.60
2018-06-15T08:15:56.118Z,17.60
2018-06-15T08:18:26.187Z,17.60
2018-06-15T08:25:55.446Z,17.50
2018-06-15T08:28:25.445Z,17.50
2018-06-15T08:30:55.537Z,17.50
2018-06-15T08:33:25.545Z,17.60
2018-06-15T08:35:55.588Z,17.60
2018-06-15T08:38:25.605Z,17.40
2018-06-15T08:40:55.668Z,17.30
2018-06-15T08:43:25.665Z,17.40
2018-06-15T08:45:55.805Z,17.50
2018-06-15T08:48:25.784Z,17.30
2018-06-15T08:50:55.821Z,17.40
2018-06-15T08:53:25.829Z,17.50
2018-06-15T08:55:55.869Z,17.60
2018-06-15T09:00:55.576Z,17.90
2018-06-15T09:03:25.627Z,18.00
2018-06-15T09:05:55.621Z,17.90
2018-06-15T09:08:25.716Z,17.90
2018-06-15T09:10:55.703Z,18.00
2018-06-15T09:13:25.731Z,18.00
2018-06-15T09:15:55.784Z,18.00
2018-06-15T09:18:25.815Z,18.10
2018-06-15T09:20:55.829Z,18.10
2018-06-15T09:23:25.898Z,18.20
2018-06-15T09:25:55.917Z,18.40
2018-06-15T09:28:25.968Z,18.60
2018-06-15T09:30:55.959Z,18.70
2018-06-15T09:33:25.994Z,18.90
2018-06-15T09:35:56.631Z,19.00
2018-06-15T09:38:26.676Z,19.20
2018-06-15T09:40:56.659Z,19.30
2018-06-15T09:43:26.704Z,19.40
2018-06-15T09:45:56.815Z,19.40
2018-06-15T09:48:26.908Z,19.40
2018-06-15T09:50:56.879Z,19.40
2018-06-15T09:53:26.893Z,19.30
2018-06-15T09:55:57.683Z,19.30
2018-06-15T09:58:27.718Z,19.10
2018-06-15T10:01:02.727Z,18.90
2018-06-15T10:03:32.756Z,19.10
2018-06-15T10:06:03.152Z,19.10
2018-06-15T10:08:33.499Z,19.00
2018-06-15T10:11:03.525Z,19.10
2018-06-15T10:13:33.581Z,19.20
2018-06-15T10:16:03.638Z,19.30
2018-06-15T10:18:33.670Z,19.20
2018-06-15T10:21:03.667Z,19.20
2018-06-15T10:23:33.761Z,19.30
2018-06-15T10:28:33.404Z,19.40
2018-06-15T10:31:03.391Z,19.60
2018-06-15T10:33:33.407Z,19.70
2018-06-15T10:36:03.435Z,19.60
2018-06-15T10:38:33.461Z,19.70
2018-06-15T10:41:03.442Z,19.70
2018-06-15T10:43:33.462Z,19.70
2018-06-15T10:46:03.542Z,19.80
2018-06-15T10:51:03.131Z,19.50
2018-06-15T10:53:33.180Z,19.60
2018-06-15T10:56:03.193Z,19.60
2018-06-15T10:58:33.187Z,19.60
2018-06-15T11:01:03.223Z,19.60
2018-06-15T11:03:33.267Z,19.90
2018-06-15T11:06:03.334Z,19.90
2018-06-15T11:08:33.396Z,20.00
2018-06-15T11:11:03.466Z,20.00
2018-06-15T11:13:33.510Z,20.20
2018-06-15T11:16:03.501Z,20.20
2018-06-15T11:18:33.555Z,20.20
2018-06-15T11:21:03.710Z,20.30
2018-06-15T11:23:33.764Z,20.40
2018-06-15T11:26:03.834Z,20.60
2018-06-15T11:28:33.847Z,20.40
2018-06-15T11:31:03.962Z,20.20
2018-06-15T11:33:34.862Z,20.40
2018-06-15T11:36:04.855Z,20.00
2018-06-15T11:38:34.918Z,20.10
2018-06-15T11:41:05.034Z,20.10
2018-06-15T11:43:34.999Z,20.00
2018-06-15T11:46:05.072Z,19.90
2018-06-15T11:48:35.143Z,19.90
2018-06-15T11:51:05.149Z,19.70
2018-06-15T11:53:35.194Z,19.80
2018-06-15T11:56:05.411Z,19.70
2018-06-15T11:58:35.417Z,19.80
2018-06-15T12:01:05.521Z,19.80
2018-06-15T12:03:35.603Z,19.80
2018-06-15T12:06:05.604Z,19.80
2018-06-15T12:08:35.624Z,19.80
2018-06-15T12:11:05.616Z,19.90
2018-06-15T12:13:35.851Z,20.00
2018-06-15T12:16:05.884Z,20.00
2018-06-15T12:18:35.921Z,19.70
2018-06-15T12:21:05.946Z,19.30
2018-06-15T12:23:35.917Z,19.30
2018-06-15T12:26:06.149Z,19.40
2018-06-15T12:28:36.187Z,19.50
2018-06-15T12:31:06.344Z,19.40
2018-06-15T12:33:36.508Z,19.40
2018-06-15T12:36:09.057Z,19.40
2018-06-15T12:38:39.124Z,19.20
2018-06-15T12:41:09.227Z,19.20
2018-06-15T12:43:39.230Z,19.20
2018-06-15T12:48:38.990Z,19.50
2018-06-15T12:51:09.099Z,19.60
2018-06-15T12:53:39.184Z,19.80
2018-06-15T12:56:09.276Z,20.00
2018-06-15T12:58:39.428Z,20.20
2018-06-15T13:01:09.598Z,20.20
2018-06-15T13:03:39.699Z,20.20
2018-06-15T13:08:39.571Z,20.20
2018-06-15T13:11:09.868Z,20.20
2018-06-15T13:13:41.312Z,20.30
2018-06-15T13:16:11.626Z,20.50
2018-06-15T13:18:41.704Z,20.60
2018-06-15T13:21:12.285Z,20.70
2018-06-15T13:23:42.439Z,20.80
2018-06-15T13:26:12.759Z,20.90
2018-06-15T13:28:42.847Z,20.60
2018-06-15T13:31:13.090Z,20.80
2018-06-15T13:33:45.570Z,21.00
2018-06-15T13:36:16.690Z,20.70
2018-06-15T13:38:51.625Z,20.60
2018-06-15T13:41:22.075Z,20.80
2018-06-15T13:43:52.553Z,20.90
2018-06-15T13:46:23.128Z,20.90
2018-06-15T13:48:53.731Z,20.90
2018-06-15T13:51:24.517Z,21.10
2018-06-15T13:53:54.935Z,21.20
2018-06-15T13:56:25.313Z,21.30
2018-06-15T13:58:55.721Z,21.30
2018-06-15T14:01:26.424Z,21.40
2018-06-15T14:03:56.931Z,21.60
2018-06-15T14:06:28.224Z,21.50
2018-06-15T14:08:59.054Z,21.40
2018-06-15T14:11:29.974Z,21.40
2018-06-15T14:14:00.627Z,21.50
2018-06-15T14:19:01.085Z,21.50
2018-06-15T14:21:31.567Z,21.10
2018-06-15T14:24:02.628Z,20.90
2018-06-15T14:26:34.734Z,21.10
2018-06-15T14:29:12.748Z,21.00
2018-06-15T14:31:44.031Z,21.00
2018-06-15T14:34:15.109Z,20.90
2018-06-15T14:36:45.757Z,21.00
2018-06-15T14:39:16.189Z,20.70
2018-06-15T14:41:46.313Z,20.70
2018-06-15T14:44:16.322Z,20.70
2018-06-15T14:46:46.335Z,20.80
2018-06-15T14:49:16.371Z,20.70
2018-06-15T14:51:46.712Z,20.60
2018-06-15T14:54:16.692Z,20.40
2018-06-15T14:56:46.734Z,20.40
2018-06-15T14:59:16.763Z,20.40
2018-06-15T15:01:46.833Z,20.40
2018-06-15T15:04:16.829Z,20.40
2018-06-15T15:06:46.963Z,20.40
2018-06-15T15:09:16.929Z,20.20
2018-06-15T15:11:46.922Z,20.20
2018-06-15T15:14:16.920Z,20.20
2018-06-15T15:16:46.974Z,20.20
2018-06-15T15:19:17.061Z,20.30
2018-06-15T15:21:47.064Z,20.30
2018-06-15T15:24:17.083Z,20.50
2018-06-15T15:26:47.286Z,20.60
2018-06-15T15:29:17.316Z,20.70
2018-06-15T15:31:47.345Z,20.80
2018-06-15T15:34:17.869Z,20.90
2018-06-15T15:39:17.578Z,21.00
2018-06-15T15:41:47.600Z,21.10
2018-06-15T15:44:17.870Z,21.20
2018-06-15T15:46:47.884Z,21.20
2018-06-15T15:49:17.947Z,21.20
2018-06-15T15:51:48.187Z,21.20
2018-06-15T15:54:18.269Z,21.10
2018-06-15T15:56:48.585Z,21.10
2018-06-15T15:59:18.688Z,21.00
2018-06-15T16:01:48.850Z,20.80
2018-06-15T16:04:18.857Z,20.70
2018-06-15T16:06:48.878Z,20.60
2018-06-15T16:09:19.034Z,20.30
2018-06-15T16:11:49.172Z,20.50
2018-06-15T16:14:19.198Z,20.30
2018-06-15T16:16:49.225Z,20.30
2018-06-15T16:19:19.328Z,20.20
2018-06-15T16:21:49.302Z,20.10
2018-06-15T16:24:19.312Z,20.10
2018-06-15T16:26:49.322Z,20.10
2018-06-15T16:29:19.382Z,20.00
2018-06-15T16:31:49.426Z,19.90
2018-06-15T16:34:20.162Z,19.90
2018-06-15T16:36:51.081Z,19.80
2018-06-15T16:39:21.128Z,19.80
2018-06-15T16:41:51.169Z,19.80
2018-06-15T16:44:21.216Z,19.70
2018-06-15T16:46:51.278Z,19.70
2018-06-15T16:49:21.291Z,19.60
2018-06-15T16:51:51.271Z,19.60
2018-06-15T16:54:21.276Z,19.60
2018-06-15T16:56:51.238Z,19.60
2018-06-15T16:59:21.232Z,19.60
2018-06-15T17:01:51.233Z,19.60
2018-06-15T17:04:21.225Z,19.60
2018-06-15T17:06:51.218Z,19.60
2018-06-15T17:09:21.230Z,19.70
2018-06-15T17:11:51.299Z,19.80
2018-06-15T17:14:21.378Z,19.90
2018-06-15T17:16:51.404Z,19.90
2018-06-15T17:19:21.449Z,19.90
2018-06-15T17:21:51.493Z,19.90
2018-06-15T17:24:21.504Z,19.90
2018-06-15T17:26:51.625Z,19.90
2018-06-15T17:29:21.672Z,19.80
2018-06-15T17:31:51.627Z,19.80
2018-06-15T17:34:21.685Z,19.80
2018-06-15T17:36:51.703Z,19.80
2018-06-15T17:39:21.730Z,19.80
2018-06-15T17:41:51.725Z,19.80
2018-06-15T17:44:21.744Z,19.80
2018-06-15T17:46:51.726Z,19.80
2018-06-15T17:49:21.739Z,19.80
2018-06-15T17:51:51.769Z,19.80
2018-06-15T17:54:21.798Z,19.80
2018-06-15T17:56:51.828Z,19.80
2018-06-15T17:59:21.867Z,19.80
2018-06-15T18:01:51.886Z,19.80
2018-06-15T18:04:21.912Z,19.70
2018-06-15T18:06:51.906Z,19.70
2018-06-15T18:09:21.933Z,19.70
2018-06-15T18:11:52.168Z,19.60
2018-06-15T18:14:22.221Z,19.60
2018-06-15T18:16:52.248Z,19.50
2018-06-15T18:19:22.268Z,19.50
2018-06-15T18:21:52.555Z,19.40
2018-06-15T18:24:22.796Z,19.30
2018-06-15T18:26:52.775Z,19.30
2018-06-15T18:31:52.388Z,19.10
2018-06-15T18:34:22.401Z,18.90
2018-06-15T18:36:52.382Z,18.90
2018-06-15T18:39:22.394Z,18.80
2018-06-15T18:41:52.423Z,18.60
2018-06-15T18:44:22.410Z,18.60
2018-06-15T18:46:52.681Z,18.40
2018-06-15T18:49:22.672Z,18.20
2018-06-15T18:51:52.719Z,18.20
2018-06-15T18:54:22.777Z,18.00
2018-06-15T18:56:52.796Z,17.80
2018-06-15T18:59:22.846Z,17.60
2018-06-15T19:01:52.905Z,17.50
2018-06-15T19:04:23.003Z,17.30
2018-06-15T19:06:53.060Z,17.20
2018-06-15T19:09:23.051Z,17.10
2018-06-15T19:11:53.075Z,16.90
2018-06-15T19:14:23.158Z,16.80
2018-06-15T19:16:53.203Z,16.80
2018-06-15T19:19:23.241Z,16.70
2018-06-15T19:21:53.285Z,16.50
2018-06-15T19:24:23.300Z,16.40
2018-06-15T19:26:53.333Z,16.20
2018-06-15T19:29:23.329Z,16.20
2018-06-15T19:31:53.391Z,16.10
2018-06-15T19:34:23.428Z,16.00
2018-06-15T19:36:53.436Z,15.90
2018-06-15T19:39:23.436Z,15.80
2018-06-15T19:41:53.409Z,15.80
2018-06-15T19:46:52.999Z,15.60
2018-06-15T19:49:23.031Z,15.60
2018-06-15T19:51:53.060Z,15.40
2018-06-15T19:54:23.119Z,15.30
2018-06-15T19:56:53.119Z,15.30
2018-06-15T20:01:52.721Z,15.10
2018-06-15T20:04:22.938Z,15.00
2018-06-15T20:06:52.989Z,15.00
2018-06-15T20:09:23.093Z,15.00
2018-06-15T20:11:53.156Z,14.90
2018-06-15T20:14:23.388Z,14.80
2018-06-15T20:16:53.404Z,14.60
2018-06-15T20:19:23.507Z,14.60
2018-06-15T20:24:23.203Z,14.40
2018-06-15T20:26:54.220Z,14.40
2018-06-15T20:29:24.268Z,14.30
2018-06-15T20:31:54.250Z,14.30
2018-06-15T20:34:24.300Z,14.30
2018-06-15T20:36:54.707Z,14.30
2018-06-15T20:39:24.776Z,14.20
2018-06-15T20:41:54.859Z,14.20
2018-06-15T20:44:24.927Z,14.10
2018-06-15T20:46:54.959Z,14.00
2018-06-15T20:49:24.963Z,14.00
2018-06-15T20:51:54.934Z,13.90
2018-06-15T20:54:24.971Z,13.90
2018-06-15T20:56:55.056Z,13.90
2018-06-15T20:59:25.099Z,13.70
2018-06-15T21:01:55.174Z,13.70
2018-06-15T21:04:25.175Z,13.70
2018-06-15T21:06:56.021Z,13.70
2018-06-15T21:09:26.249Z,13.70
2018-06-15T21:11:56.264Z,13.60
2018-06-15T21:14:26.297Z,13.60
2018-06-15T21:16:56.345Z,13.50
2018-06-15T21:19:26.355Z,13.50
2018-06-15T21:21:56.371Z,13.50
2018-06-15T21:24:26.415Z,13.40
2018-06-15T21:26:56.464Z,13.40
2018-06-15T21:29:26.512Z,13.30
2018-06-15T21:31:56.543Z,13.20
2018-06-15T21:34:26.536Z,13.20
2018-06-15T21:36:56.775Z,13.10
2018-06-15T21:39:26.787Z,13.10
2018-06-15T21:41:56.931Z,13.00
2018-06-15T21:44:26.961Z,13.00
2018-06-15T21:46:56.968Z,12.90
2018-06-15T21:49:27.048Z,12.90
2018-06-15T21:51:58.297Z,12.90
2018-06-15T21:54:28.367Z,12.90
2018-06-15T21:56:58.457Z,12.80
2018-06-15T21:59:29.228Z,12.80
2018-06-15T22:01:59.294Z,12.70
2018-06-15T22:04:29.343Z,12.70
2018-06-15T22:06:59.417Z,12.70
2018-06-15T22:09:29.489Z,12.70
2018-06-15T22:11:59.558Z,12.70
2018-06-15T22:16:59.302Z,12.70
2018-06-15T22:19:29.332Z,12.60
2018-06-15T22:21:59.416Z,12.60
2018-06-15T22:24:29.513Z,12.60
2018-06-15T22:26:59.649Z,12.60
2018-06-15T22:29:29.680Z,12.60
2018-06-15T22:31:59.792Z,12.60
2018-06-15T22:34:29.769Z,12.60
2018-06-15T22:36:59.820Z,12.50
2018-06-15T22:39:29.817Z,12.50
2018-06-15T22:41:59.972Z,12.50
2018-06-15T22:44:30.060Z,12.50
2018-06-15T22:47:00.094Z,12.40
2018-06-15T22:49:30.143Z,12.40
2018-06-15T22:52:00.159Z,12.40
2018-06-15T22:54:30.245Z,12.30
2018-06-15T22:57:00.319Z,12.30
2018-06-15T22:59:30.319Z,12.30
2018-06-15T23:02:00.401Z,12.30
2018-06-15T23:04:30.502Z,12.20
2018-06-15T23:07:00.527Z,12.20
2018-06-15T23:09:30.559Z,12.20
2018-06-15T23:12:00.606Z,12.20
2018-06-15T23:14:30.623Z,12.20
2018-06-15T23:17:00.715Z,12.20
2018-06-15T23:19:30.712Z,12.10
2018-06-15T23:22:00.751Z,12.10
2018-06-15T23:27:00.392Z,12.10
2018-06-15T23:29:30.388Z,12.10
2018-06-15T23:32:00.478Z,12.00
2018-06-15T23:34:30.501Z,12.00
2018-06-15T23:37:00.597Z,12.00
2018-06-15T23:39:30.677Z,12.00
2018-06-15T23:42:00.722Z,12.00
2018-06-15T23:44:30.691Z,12.00
2018-06-15T23:47:00.784Z,11.90
2018-06-15T23:49:30.824Z,12.00
2018-06-15T23:52:00.887Z,11.90
2018-06-15T23:57:00.578Z,11.90
2018-06-15T23:59:30.612Z,11.90
